sensor_id;sensor_type;location;lat;lon;timestamp;temperature;humidity
7738;DHT22;29398;45.328;5.558;2022-12-16T00:01:06;5.20;99.90
7738;DHT22;29398;45.328;5.558;2022-12-16T00:02:08;5.30;99.90
7738;DHT22;29398;45.328;5.558;2022-12-16T00:03:10;5.20;99.90
7738;DHT22;29398;45.328;5.558;2022-12-16T00:04:12;5.20;99.90
7738;DHT22;29398;45.328;5.558;2022-12-16T00:05:16;5.20;99.90
7738;DHT22;29398;45.328;5.558;2022-12-16T00:06:17;5.20;99.90
7738;DHT22;29398;45.328;5.558;2022-12-16T00:07:20;5.20;99.90
7738;DHT22;29398;45.328;5.558;2022-12-16T00:08:22;5.20;99.90
7738;DHT22;29398;45.328;5.558;2022-12-16T00:09:24;5.20;99.90
7738;DHT22;29398;45.328;5.558;2022-12-16T00:10:26;5.30;99.90
7738;DHT22;29398;45.328;5.558;2022-12-16T00:11:47;5.30;99.90
7738;DHT22;29398;45.328;5.558;2022-12-16T00:12:49;5.20;99.90
7738;DHT22;29398;45.328;5.558;2022-12-16T00:13:51;5.20;99.90
7738;DHT22;29398;45.328;5.558;2022-12-16T00:14:53;5.20;99.90
7738;DHT22;29398;45.328;5.558;2022-12-16T00:15:55;5.10;99.90
7738;DHT22;29398;45.328;5.558;2022-12-16T00:16:57;5.20;99.90
7738;DHT22;29398;45.328;5.558;2022-12-16T00:17:58;5.20;99.90
7738;DHT22;29398;45.328;5.558;2022-12-16T00:19:00;5.20;99.90
7738;DHT22;29398;45.328;5.558;2022-12-16T00:20:02;5.30;99.90
7738;DHT22;29398;45.328;5.558;2022-12-16T00:21:05;5.30;99.90
7738;DHT22;29398;45.328;5.558;2022-12-16T00:22:06;5.30;99.90
7738;DHT22;29398;45.328;5.558;2022-12-16T00:23:09;5.30;99.90
7738;DHT22;29398;45.328;5.558;2022-12-16T00:24:10;5.30;99.90
7738;DHT22;29398;45.328;5.558;2022-12-16T00:25:13;5.30;99.90
7738;DHT22;29398;45.328;5.558;2022-12-16T00:26:14;5.20;99.90
7738;DHT22;29398;45.328;5.558;2022-12-16T00:27:16;5.30;99.90
7738;DHT22;29398;45.328;5.558;2022-12-16T00:28:18;5.30;99.90
7738;DHT22;29398;45.328;5.558;2022-12-16T00:29:22;5.30;99.90
7738;DHT22;29398;45.328;5.558;2022-12-16T00:30:24;5.20;99.90
7738;DHT22;29398;45.328;5.558;2022-12-16T00:31:25;5.30;99.90
7738;DHT22;29398;45.328;5.558;2022-12-16T00:32:28;5.30;99.90
7738;DHT22;29398;45.328;5.558;2022-12-16T00:33:29;5.30;99.90
7738;DHT22;29398;45.328;5.558;2022-12-16T00:34:31;5.30;99.90
7738;DHT22;29398;45.328;5.558;2022-12-16T00:35:33;5.40;99.90
7738;DHT22;29398;45.328;5.558;2022-12-16T00:36:35;5.30;99.90
7738;DHT22;29398;45.328;5.558;2022-12-16T00:37:36;5.30;99.90
7738;DHT22;29398;45.328;5.558;2022-12-16T00:38:38;5.30;99.90
7738;DHT22;29398;45.328;5.558;2022-12-16T00:39:39;5.30;99.90
7738;DHT22;29398;45.328;5.558;2022-12-16T00:40:43;5.30;99.90
7738;DHT22;29398;45.328;5.558;2022-12-16T00:41:44;5.30;99.90
7738;DHT22;29398;45.328;5.558;2022-12-16T00:42:47;5.30;99.90
7738;DHT22;29398;45.328;5.558;2022-12-16T00:43:48;5.30;99.90
7738;DHT22;29398;45.328;5.558;2022-12-16T00:44:50;5.30;99.90
7738;DHT22;29398;45.328;5.558;2022-12-16T00:45:52;5.40;99.90
7738;DHT22;29398;45.328;5.558;2022-12-16T00:46:53;5.40;99.90
7738;DHT22;29398;45.328;5.558;2022-12-16T00:47:56;5.40;99.90
7738;DHT22;29398;45.328;5.558;2022-12-16T00:48:57;5.30;99.90
7738;DHT22;29398;45.328;5.558;2022-12-16T00:49:59;5.30;99.90
7738;DHT22;29398;45.328;5.558;2022-12-16T00:51:00;5.20;99.90
7738;DHT22;29398;45.328;5.558;2022-12-16T00:52:02;5.30;99.90
7738;DHT22;29398;45.328;5.558;2022-12-16T00:53:04;5.20;99.90
7738;DHT22;29398;45.328;5.558;2022-12-16T00:54:07;5.20;99.90
7738;DHT22;29398;45.328;5.558;2022-12-16T00:55:08;5.20;99.90
7738;DHT22;29398;45.328;5.558;2022-12-16T00:56:13;5.20;99.90
7738;DHT22;29398;45.328;5.558;2022-12-16T00:57:16;5.20;99.90
7738;DHT22;29398;45.328;5.558;2022-12-16T00:58:18;5.20;99.90
7738;DHT22;29398;45.328;5.558;2022-12-16T00:59:20;5.20;99.90
7738;DHT22;29398;45.328;5.558;2022-12-16T01:00:22;5.20;99.90
7738;DHT22;29398;45.328;5.558;2022-12-16T01:01:24;5.20;99.90
7738;DHT22;29398;45.328;5.558;2022-12-16T01:02:26;5.20;99.90
7738;DHT22;29398;45.328;5.558;2022-12-16T01:03:27;5.20;99.90
7738;DHT22;29398;45.328;5.558;2022-12-16T01:04:29;5.20;99.90
7738;DHT22;29398;45.328;5.558;2022-12-16T01:05:30;5.30;99.90
7738;DHT22;29398;45.328;5.558;2022-12-16T01:06:32;5.20;99.90
7738;DHT22;29398;45.328;5.558;2022-12-16T01:07:33;5.20;99.90
7738;DHT22;29398;45.328;5.558;2022-12-16T01:08:35;5.20;99.90
7738;DHT22;29398;45.328;5.558;2022-12-16T01:09:36;5.20;99.90
7738;DHT22;29398;45.328;5.558;2022-12-16T01:10:39;5.20;99.90
7738;DHT22;29398;45.328;5.558;2022-12-16T01:11:41;5.20;99.90
7738;DHT22;29398;45.328;5.558;2022-12-16T01:12:43;5.20;99.90
7738;DHT22;29398;45.328;5.558;2022-12-16T01:13:45;5.20;99.90
7738;DHT22;29398;45.328;5.558;2022-12-16T01:14:47;5.20;99.90
7738;DHT22;29398;45.328;5.558;2022-12-16T01:15:50;5.20;99.90
7738;DHT22;29398;45.328;5.558;2022-12-16T01:16:52;5.20;99.90
7738;DHT22;29398;45.328;5.558;2022-12-16T01:17:54;5.20;99.90
7738;DHT22;29398;45.328;5.558;2022-12-16T01:18:55;5.20;99.90
7738;DHT22;29398;45.328;5.558;2022-12-16T01:19:57;5.20;99.90
7738;DHT22;29398;45.328;5.558;2022-12-16T01:21:02;5.20;99.90
7738;DHT22;29398;45.328;5.558;2022-12-16T01:22:04;5.20;99.90
7738;DHT22;29398;45.328;5.558;2022-12-16T01:23:05;5.10;99.90
7738;DHT22;29398;45.328;5.558;2022-12-16T01:24:08;5.20;99.90
7738;DHT22;29398;45.328;5.558;2022-12-16T01:25:11;5.10;99.90
7738;DHT22;29398;45.328;5.558;2022-12-16T01:26:17;5.00;99.90
7738;DHT22;29398;45.328;5.558;2022-12-16T01:27:20;5.10;99.90
7738;DHT22;29398;45.328;5.558;2022-12-16T01:28:22;5.10;99.90
7738;DHT22;29398;45.328;5.558;2022-12-16T01:29:23;5.20;99.90
7738;DHT22;29398;45.328;5.558;2022-12-16T01:30:25;5.20;99.90
7738;DHT22;29398;45.328;5.558;2022-12-16T01:31:26;5.20;99.90
7738;DHT22;29398;45.328;5.558;2022-12-16T01:32:28;5.20;99.90
7738;DHT22;29398;45.328;5.558;2022-12-16T01:33:30;5.30;99.90
7738;DHT22;29398;45.328;5.558;2022-12-16T01:34:33;5.30;99.90
7738;DHT22;29398;45.328;5.558;2022-12-16T01:35:34;5.30;99.90
7738;DHT22;29398;45.328;5.558;2022-12-16T01:36:37;5.30;99.90
7738;DHT22;29398;45.328;5.558;2022-12-16T01:37:39;5.30;99.90
7738;DHT22;29398;45.328;5.558;2022-12-16T01:38:42;5.30;99.90
7738;DHT22;29398;45.328;5.558;2022-12-16T01:39:44;5.30;99.90
7738;DHT22;29398;45.328;5.558;2022-12-16T01:40:46;5.30;99.90
7738;DHT22;29398;45.328;5.558;2022-12-16T01:41:47;5.30;99.90
7738;DHT22;29398;45.328;5.558;2022-12-16T01:42:50;5.30;99.90
7738;DHT22;29398;45.328;5.558;2022-12-16T01:43:51;5.30;99.90
7738;DHT22;29398;45.328;5.558;2022-12-16T01:44:53;5.30;99.90
7738;DHT22;29398;45.328;5.558;2022-12-16T01:45:57;5.30;99.90
7738;DHT22;29398;45.328;5.558;2022-12-16T01:47:03;5.30;99.90
7738;DHT22;29398;45.328;5.558;2022-12-16T01:48:14;5.30;99.90
7738;DHT22;29398;45.328;5.558;2022-12-16T01:49:22;5.30;99.90
7738;DHT22;29398;45.328;5.558;2022-12-16T01:50:24;5.30;99.90
7738;DHT22;29398;45.328;5.558;2022-12-16T01:51:31;5.30;99.90
7738;DHT22;29398;45.328;5.558;2022-12-16T01:52:40;5.30;99.90
7738;DHT22;29398;45.328;5.558;2022-12-16T01:53:45;5.30;99.90
7738;DHT22;29398;45.328;5.558;2022-12-16T01:54:51;5.40;99.90
7738;DHT22;29398;45.328;5.558;2022-12-16T01:55:54;5.40;99.90
7738;DHT22;29398;45.328;5.558;2022-12-16T01:57:00;5.30;99.90
7738;DHT22;29398;45.328;5.558;2022-12-16T01:58:08;5.40;99.90
7738;DHT22;29398;45.328;5.558;2022-12-16T01:59:13;5.40;99.90
7738;DHT22;29398;45.328;5.558;2022-12-16T02:00:16;5.50;99.90
7738;DHT22;29398;45.328;5.558;2022-12-16T02:01:18;5.40;99.90
7738;DHT22;29398;45.328;5.558;2022-12-16T02:02:21;5.40;99.90
7738;DHT22;29398;45.328;5.558;2022-12-16T02:03:23;5.40;99.90
7738;DHT22;29398;45.328;5.558;2022-12-16T02:04:25;5.50;99.90
7738;DHT22;29398;45.328;5.558;2022-12-16T02:05:26;5.50;99.90
7738;DHT22;29398;45.328;5.558;2022-12-16T02:06:30;5.50;99.90
7738;DHT22;29398;45.328;5.558;2022-12-16T02:07:31;5.50;99.90
7738;DHT22;29398;45.328;5.558;2022-12-16T02:08:34;5.50;99.90
7738;DHT22;29398;45.328;5.558;2022-12-16T02:09:36;5.50;99.90
7738;DHT22;29398;45.328;5.558;2022-12-16T02:10:47;5.50;99.90
7738;DHT22;29398;45.328;5.558;2022-12-16T02:12:08;5.50;99.90
7738;DHT22;29398;45.328;5.558;2022-12-16T02:13:20;5.30;99.90
7738;DHT22;29398;45.328;5.558;2022-12-16T02:14:36;5.50;99.90
7738;DHT22;29398;45.328;5.558;2022-12-16T02:15:42;5.50;99.90
7738;DHT22;29398;45.328;5.558;2022-12-16T02:16:50;5.50;99.90
7738;DHT22;29398;45.328;5.558;2022-12-16T02:18:01;5.50;99.90
7738;DHT22;29398;45.328;5.558;2022-12-16T02:19:21;5.50;99.90
7738;DHT22;29398;45.328;5.558;2022-12-16T02:22:17;5.50;99.90
7738;DHT22;29398;45.328;5.558;2022-12-16T02:23:49;5.40;99.90
7738;DHT22;29398;45.328;5.558;2022-12-16T02:25:19;5.40;99.90
7738;DHT22;29398;45.328;5.558;2022-12-16T02:28:05;5.30;99.90
7738;DHT22;29398;45.328;5.558;2022-12-16T02:29:34;5.30;99.90
7738;DHT22;29398;45.328;5.558;2022-12-16T02:32:29;5.30;99.90
7738;DHT22;29398;45.328;5.558;2022-12-16T02:33:51;5.30;99.90
7738;DHT22;29398;45.328;5.558;2022-12-16T02:35:04;5.30;99.90
7738;DHT22;29398;45.328;5.558;2022-12-16T02:36:13;5.40;99.90
7738;DHT22;29398;45.328;5.558;2022-12-16T02:37:22;5.30;99.90
7738;DHT22;29398;45.328;5.558;2022-12-16T02:38:38;5.30;99.90
7738;DHT22;29398;45.328;5.558;2022-12-16T02:39:47;5.30;99.90
7738;DHT22;29398;45.328;5.558;2022-12-16T02:40:52;5.40;99.90
7738;DHT22;29398;45.328;5.558;2022-12-16T02:42:01;5.40;99.90
7738;DHT22;29398;45.328;5.558;2022-12-16T02:43:10;5.40;99.90
7738;DHT22;29398;45.328;5.558;2022-12-16T02:44:14;5.40;99.90
7738;DHT22;29398;45.328;5.558;2022-12-16T02:45:18;5.30;99.90
7738;DHT22;29398;45.328;5.558;2022-12-16T02:46:24;5.30;99.90
7738;DHT22;29398;45.328;5.558;2022-12-16T02:47:28;5.30;99.90
7738;DHT22;29398;45.328;5.558;2022-12-16T02:48:31;5.30;99.90
7738;DHT22;29398;45.328;5.558;2022-12-16T02:49:46;5.30;99.90
7738;DHT22;29398;45.328;5.558;2022-12-16T02:50:49;5.30;99.90
7738;DHT22;29398;45.328;5.558;2022-12-16T02:51:53;5.30;99.90
7738;DHT22;29398;45.328;5.558;2022-12-16T02:52:56;5.20;99.90
7738;DHT22;29398;45.328;5.558;2022-12-16T02:53:59;5.20;99.90
7738;DHT22;29398;45.328;5.558;2022-12-16T02:55:01;5.20;99.90
7738;DHT22;29398;45.328;5.558;2022-12-16T02:56:13;5.20;99.90
7738;DHT22;29398;45.328;5.558;2022-12-16T02:57:58;5.20;99.90
7738;DHT22;29398;45.328;5.558;2022-12-16T02:59:10;5.20;99.90
7738;DHT22;29398;45.328;5.558;2022-12-16T03:00:15;5.20;99.90
7738;DHT22;29398;45.328;5.558;2022-12-16T03:01:24;5.20;99.90
7738;DHT22;29398;45.328;5.558;2022-12-16T03:02:37;5.20;99.90
7738;DHT22;29398;45.328;5.558;2022-12-16T03:03:46;5.20;99.90
7738;DHT22;29398;45.328;5.558;2022-12-16T03:04:50;5.30;99.90
7738;DHT22;29398;45.328;5.558;2022-12-16T03:05:54;5.30;99.90
7738;DHT22;29398;45.328;5.558;2022-12-16T03:06:56;5.30;99.90
7738;DHT22;29398;45.328;5.558;2022-12-16T03:08:02;5.20;99.90
7738;DHT22;29398;45.328;5.558;2022-12-16T03:09:09;5.20;99.90
7738;DHT22;29398;45.328;5.558;2022-12-16T03:10:16;5.20;99.90
7738;DHT22;29398;45.328;5.558;2022-12-16T03:11:17;5.20;99.90
7738;DHT22;29398;45.328;5.558;2022-12-16T03:12:21;5.20;99.90
7738;DHT22;29398;45.328;5.558;2022-12-16T03:13:22;5.20;99.90
7738;DHT22;29398;45.328;5.558;2022-12-16T03:14:28;5.20;99.90
7738;DHT22;29398;45.328;5.558;2022-12-16T03:15:33;5.20;99.90
7738;DHT22;29398;45.328;5.558;2022-12-16T03:16:35;5.20;99.90
7738;DHT22;29398;45.328;5.558;2022-12-16T03:17:38;5.20;99.90
7738;DHT22;29398;45.328;5.558;2022-12-16T03:18:42;5.20;99.90
7738;DHT22;29398;45.328;5.558;2022-12-16T03:19:48;5.20;99.90
7738;DHT22;29398;45.328;5.558;2022-12-16T03:20:53;5.20;99.90
7738;DHT22;29398;45.328;5.558;2022-12-16T03:21:59;5.20;99.90
7738;DHT22;29398;45.328;5.558;2022-12-16T03:23:11;5.20;99.90
7738;DHT22;29398;45.328;5.558;2022-12-16T03:24:13;5.10;99.90
7738;DHT22;29398;45.328;5.558;2022-12-16T03:25:17;5.20;99.90
7738;DHT22;29398;45.328;5.558;2022-12-16T03:26:23;5.10;99.90
7738;DHT22;29398;45.328;5.558;2022-12-16T03:27:34;5.10;99.90
7738;DHT22;29398;45.328;5.558;2022-12-16T03:28:43;5.10;99.90
7738;DHT22;29398;45.328;5.558;2022-12-16T03:29:52;5.10;99.90
7738;DHT22;29398;45.328;5.558;2022-12-16T03:31:00;5.10;99.90
7738;DHT22;29398;45.328;5.558;2022-12-16T03:32:12;5.10;99.90
7738;DHT22;29398;45.328;5.558;2022-12-16T03:33:20;5.10;99.90
7738;DHT22;29398;45.328;5.558;2022-12-16T03:34:28;5.10;99.90
7738;DHT22;29398;45.328;5.558;2022-12-16T03:35:36;5.10;99.90
7738;DHT22;29398;45.328;5.558;2022-12-16T03:36:38;5.10;99.90
7738;DHT22;29398;45.328;5.558;2022-12-16T03:37:43;5.00;99.90
7738;DHT22;29398;45.328;5.558;2022-12-16T03:38:46;5.00;99.90
7738;DHT22;29398;45.328;5.558;2022-12-16T03:39:51;5.10;99.90
7738;DHT22;29398;45.328;5.558;2022-12-16T03:40:54;5.10;99.90
7738;DHT22;29398;45.328;5.558;2022-12-16T03:41:57;5.10;99.90
7738;DHT22;29398;45.328;5.558;2022-12-16T03:43:00;5.10;99.90
7738;DHT22;29398;45.328;5.558;2022-12-16T03:44:03;5.00;99.90
7738;DHT22;29398;45.328;5.558;2022-12-16T03:45:06;5.00;99.90
7738;DHT22;29398;45.328;5.558;2022-12-16T03:46:13;5.00;99.90
7738;DHT22;29398;45.328;5.558;2022-12-16T03:47:15;5.00;99.90
7738;DHT22;29398;45.328;5.558;2022-12-16T03:48:22;4.90;99.90
7738;DHT22;29398;45.328;5.558;2022-12-16T03:49:24;4.90;99.90
7738;DHT22;29398;45.328;5.558;2022-12-16T03:50:30;4.90;99.90
7738;DHT22;29398;45.328;5.558;2022-12-16T03:51:32;5.00;99.90
7738;DHT22;29398;45.328;5.558;2022-12-16T03:52:35;5.00;99.90
7738;DHT22;29398;45.328;5.558;2022-12-16T03:53:36;4.90;99.90
7738;DHT22;29398;45.328;5.558;2022-12-16T03:54:38;4.90;99.90
7738;DHT22;29398;45.328;5.558;2022-12-16T03:55:39;4.90;99.90
7738;DHT22;29398;45.328;5.558;2022-12-16T03:56:41;4.90;99.90
7738;DHT22;29398;45.328;5.558;2022-12-16T03:57:42;4.90;99.90
7738;DHT22;29398;45.328;5.558;2022-12-16T03:58:44;4.90;99.90
7738;DHT22;29398;45.328;5.558;2022-12-16T03:59:46;4.80;99.90
7738;DHT22;29398;45.328;5.558;2022-12-16T04:00:48;4.80;99.90
7738;DHT22;29398;45.328;5.558;2022-12-16T04:01:50;4.80;99.90
7738;DHT22;29398;45.328;5.558;2022-12-16T04:02:53;4.80;99.90
7738;DHT22;29398;45.328;5.558;2022-12-16T04:03:55;4.80;99.90
7738;DHT22;29398;45.328;5.558;2022-12-16T04:04:57;4.90;99.90
7738;DHT22;29398;45.328;5.558;2022-12-16T04:05:58;4.90;99.90
7738;DHT22;29398;45.328;5.558;2022-12-16T04:07:00;4.90;99.90
7738;DHT22;29398;45.328;5.558;2022-12-16T04:08:19;5.00;99.90
7738;DHT22;29398;45.328;5.558;2022-12-16T04:09:21;5.00;99.90
7738;DHT22;29398;45.328;5.558;2022-12-16T04:10:22;5.10;99.90
7738;DHT22;29398;45.328;5.558;2022-12-16T04:11:38;5.00;99.90
7738;DHT22;29398;45.328;5.558;2022-12-16T04:12:58;5.10;99.90
7738;DHT22;29398;45.328;5.558;2022-12-16T04:14:17;5.10;99.90
7738;DHT22;29398;45.328;5.558;2022-12-16T04:15:36;5.00;99.90
7738;DHT22;29398;45.328;5.558;2022-12-16T04:16:56;5.00;99.90
7738;DHT22;29398;45.328;5.558;2022-12-16T04:18:17;4.90;99.90
7738;DHT22;29398;45.328;5.558;2022-12-16T04:19:38;4.90;99.90
7738;DHT22;29398;45.328;5.558;2022-12-16T04:20:59;4.90;99.90
7738;DHT22;29398;45.328;5.558;2022-12-16T04:22:21;4.90;99.90
7738;DHT22;29398;45.328;5.558;2022-12-16T04:23:46;4.90;99.90
7738;DHT22;29398;45.328;5.558;2022-12-16T04:25:08;5.00;99.90
7738;DHT22;29398;45.328;5.558;2022-12-16T04:26:11;5.00;99.90
7738;DHT22;29398;45.328;5.558;2022-12-16T04:27:12;5.10;99.90
7738;DHT22;29398;45.328;5.558;2022-12-16T04:28:27;5.10;99.90
7738;DHT22;29398;45.328;5.558;2022-12-16T04:29:28;5.10;99.90
7738;DHT22;29398;45.328;5.558;2022-12-16T04:30:32;5.10;99.90
7738;DHT22;29398;45.328;5.558;2022-12-16T04:31:34;5.10;99.90
7738;DHT22;29398;45.328;5.558;2022-12-16T04:32:36;5.10;99.90
7738;DHT22;29398;45.328;5.558;2022-12-16T04:33:52;5.10;99.90
7738;DHT22;29398;45.328;5.558;2022-12-16T04:35:14;5.10;99.90
7738;DHT22;29398;45.328;5.558;2022-12-16T04:36:33;5.10;99.90
7738;DHT22;29398;45.328;5.558;2022-12-16T04:37:52;5.10;99.90
7738;DHT22;29398;45.328;5.558;2022-12-16T04:39:12;5.20;99.90
7738;DHT22;29398;45.328;5.558;2022-12-16T04:40:31;5.20;99.90
7738;DHT22;29398;45.328;5.558;2022-12-16T04:41:51;5.20;99.90
7738;DHT22;29398;45.328;5.558;2022-12-16T04:43:11;5.20;99.90
7738;DHT22;29398;45.328;5.558;2022-12-16T04:44:30;5.10;99.90
7738;DHT22;29398;45.328;5.558;2022-12-16T04:45:50;5.20;99.90
7738;DHT22;29398;45.328;5.558;2022-12-16T04:47:09;5.20;99.90
7738;DHT22;29398;45.328;5.558;2022-12-16T04:48:30;5.20;99.90
7738;DHT22;29398;45.328;5.558;2022-12-16T04:49:49;5.20;99.90
7738;DHT22;29398;45.328;5.558;2022-12-16T04:51:10;5.10;99.90
7738;DHT22;29398;45.328;5.558;2022-12-16T04:52:29;5.00;99.90
7738;DHT22;29398;45.328;5.558;2022-12-16T04:53:48;5.00;99.90
7738;DHT22;29398;45.328;5.558;2022-12-16T04:55:09;4.90;99.90
7738;DHT22;29398;45.328;5.558;2022-12-16T04:56:29;4.90;99.90
7738;DHT22;29398;45.328;5.558;2022-12-16T04:57:49;4.90;99.90
7738;DHT22;29398;45.328;5.558;2022-12-16T04:59:09;4.90;99.90
7738;DHT22;29398;45.328;5.558;2022-12-16T05:00:29;4.90;99.90
7738;DHT22;29398;45.328;5.558;2022-12-16T05:01:48;5.00;99.90
7738;DHT22;29398;45.328;5.558;2022-12-16T05:03:07;5.00;99.90
7738;DHT22;29398;45.328;5.558;2022-12-16T05:04:27;5.00;99.90
7738;DHT22;29398;45.328;5.558;2022-12-16T05:05:47;5.00;99.90
7738;DHT22;29398;45.328;5.558;2022-12-16T05:07:08;5.00;99.90
7738;DHT22;29398;45.328;5.558;2022-12-16T05:08:27;5.00;99.90
7738;DHT22;29398;45.328;5.558;2022-12-16T05:09:47;4.90;99.90
7738;DHT22;29398;45.328;5.558;2022-12-16T05:11:12;4.90;99.90
7738;DHT22;29398;45.328;5.558;2022-12-16T05:12:31;4.90;99.90
7738;DHT22;29398;45.328;5.558;2022-12-16T05:13:51;4.90;99.90
7738;DHT22;29398;45.328;5.558;2022-12-16T05:15:10;5.00;99.90
7738;DHT22;29398;45.328;5.558;2022-12-16T05:16:30;5.00;99.90
7738;DHT22;29398;45.328;5.558;2022-12-16T05:17:49;5.10;99.90
7738;DHT22;29398;45.328;5.558;2022-12-16T05:19:14;5.10;99.90
7738;DHT22;29398;45.328;5.558;2022-12-16T05:20:33;5.10;99.90
7738;DHT22;29398;45.328;5.558;2022-12-16T05:21:53;5.10;99.90
7738;DHT22;29398;45.328;5.558;2022-12-16T05:23:14;5.10;99.90
7738;DHT22;29398;45.328;5.558;2022-12-16T05:24:33;5.10;99.90
7738;DHT22;29398;45.328;5.558;2022-12-16T05:25:53;5.10;99.90
7738;DHT22;29398;45.328;5.558;2022-12-16T05:27:12;5.10;99.90
7738;DHT22;29398;45.328;5.558;2022-12-16T05:28:32;5.10;99.90
7738;DHT22;29398;45.328;5.558;2022-12-16T05:29:51;5.10;99.90
7738;DHT22;29398;45.328;5.558;2022-12-16T05:31:10;5.20;99.90
7738;DHT22;29398;45.328;5.558;2022-12-16T05:32:30;5.10;99.90
7738;DHT22;29398;45.328;5.558;2022-12-16T05:33:49;5.10;99.90
7738;DHT22;29398;45.328;5.558;2022-12-16T05:35:09;5.10;99.90
7738;DHT22;29398;45.328;5.558;2022-12-16T05:36:28;5.20;99.90
7738;DHT22;29398;45.328;5.558;2022-12-16T05:37:48;5.20;99.90
7738;DHT22;29398;45.328;5.558;2022-12-16T05:39:09;5.20;99.90
7738;DHT22;29398;45.328;5.558;2022-12-16T05:40:29;5.10;99.90
7738;DHT22;29398;45.328;5.558;2022-12-16T05:41:49;5.00;99.90
7738;DHT22;29398;45.328;5.558;2022-12-16T05:43:08;4.90;99.90
7738;DHT22;29398;45.328;5.558;2022-12-16T05:44:28;4.90;99.90
7738;DHT22;29398;45.328;5.558;2022-12-16T05:45:47;4.80;99.90
7738;DHT22;29398;45.328;5.558;2022-12-16T05:47:07;4.70;99.90
7738;DHT22;29398;45.328;5.558;2022-12-16T05:48:27;4.70;99.90
7738;DHT22;29398;45.328;5.558;2022-12-16T05:49:47;4.80;99.90
7738;DHT22;29398;45.328;5.558;2022-12-16T05:51:06;4.80;99.90
7738;DHT22;29398;45.328;5.558;2022-12-16T05:52:25;4.80;99.90
7738;DHT22;29398;45.328;5.558;2022-12-16T05:53:45;4.80;99.90
7738;DHT22;29398;45.328;5.558;2022-12-16T05:55:07;4.90;99.90
7738;DHT22;29398;45.328;5.558;2022-12-16T05:56:26;4.90;99.90
7738;DHT22;29398;45.328;5.558;2022-12-16T05:57:48;4.90;99.90
7738;DHT22;29398;45.328;5.558;2022-12-16T05:59:07;4.90;99.90
7738;DHT22;29398;45.328;5.558;2022-12-16T06:00:27;5.00;99.90
7738;DHT22;29398;45.328;5.558;2022-12-16T06:01:46;4.90;99.90
7738;DHT22;29398;45.328;5.558;2022-12-16T06:03:05;4.90;99.90
7738;DHT22;29398;45.328;5.558;2022-12-16T06:04:24;4.90;99.90
7738;DHT22;29398;45.328;5.558;2022-12-16T06:05:44;4.90;99.90
7738;DHT22;29398;45.328;5.558;2022-12-16T06:07:09;4.90;99.90
7738;DHT22;29398;45.328;5.558;2022-12-16T06:08:28;4.80;99.90
7738;DHT22;29398;45.328;5.558;2022-12-16T06:09:47;4.80;99.90
7738;DHT22;29398;45.328;5.558;2022-12-16T06:11:08;4.80;99.90
7738;DHT22;29398;45.328;5.558;2022-12-16T06:12:30;4.80;99.90
7738;DHT22;29398;45.328;5.558;2022-12-16T06:13:50;4.80;99.90
7738;DHT22;29398;45.328;5.558;2022-12-16T06:15:09;4.80;99.90
7738;DHT22;29398;45.328;5.558;2022-12-16T06:16:29;4.80;99.90
7738;DHT22;29398;45.328;5.558;2022-12-16T06:17:50;4.80;99.90
7738;DHT22;29398;45.328;5.558;2022-12-16T06:19:09;4.80;99.90
7738;DHT22;29398;45.328;5.558;2022-12-16T06:20:28;4.80;99.90
7738;DHT22;29398;45.328;5.558;2022-12-16T06:21:48;4.70;99.90
7738;DHT22;29398;45.328;5.558;2022-12-16T06:23:07;4.70;99.90
7738;DHT22;29398;45.328;5.558;2022-12-16T06:24:27;4.70;99.90
7738;DHT22;29398;45.328;5.558;2022-12-16T06:25:46;4.70;99.90
7738;DHT22;29398;45.328;5.558;2022-12-16T06:27:08;4.70;99.90
7738;DHT22;29398;45.328;5.558;2022-12-16T06:28:27;4.60;99.90
7738;DHT22;29398;45.328;5.558;2022-12-16T06:29:47;4.50;99.90
7738;DHT22;29398;45.328;5.558;2022-12-16T06:31:07;4.50;99.90
7738;DHT22;29398;45.328;5.558;2022-12-16T06:32:27;4.50;99.90
7738;DHT22;29398;45.328;5.558;2022-12-16T06:33:46;4.60;99.90
7738;DHT22;29398;45.328;5.558;2022-12-16T06:35:08;4.50;99.90
7738;DHT22;29398;45.328;5.558;2022-12-16T06:36:28;4.50;99.90
7738;DHT22;29398;45.328;5.558;2022-12-16T06:37:47;4.50;99.90
7738;DHT22;29398;45.328;5.558;2022-12-16T06:39:07;4.50;99.90
7738;DHT22;29398;45.328;5.558;2022-12-16T06:40:26;4.50;99.90
7738;DHT22;29398;45.328;5.558;2022-12-16T06:41:46;4.40;99.90
7738;DHT22;29398;45.328;5.558;2022-12-16T06:43:07;4.10;99.90
7738;DHT22;29398;45.328;5.558;2022-12-16T06:44:26;4.40;99.90
7738;DHT22;29398;45.328;5.558;2022-12-16T06:45:46;4.40;99.90
7738;DHT22;29398;45.328;5.558;2022-12-16T06:47:05;4.40;99.90
7738;DHT22;29398;45.328;5.558;2022-12-16T06:48:25;4.50;99.90
7738;DHT22;29398;45.328;5.558;2022-12-16T06:49:45;4.40;99.90
7738;DHT22;29398;45.328;5.558;2022-12-16T06:51:04;4.40;99.90
7738;DHT22;29398;45.328;5.558;2022-12-16T06:52:24;4.40;99.90
7738;DHT22;29398;45.328;5.558;2022-12-16T06:53:44;4.30;99.90
7738;DHT22;29398;45.328;5.558;2022-12-16T06:55:03;4.30;99.90
7738;DHT22;29398;45.328;5.558;2022-12-16T06:56:24;4.30;99.90
7738;DHT22;29398;45.328;5.558;2022-12-16T06:57:44;4.20;99.90
7738;DHT22;29398;45.328;5.558;2022-12-16T06:59:05;4.20;99.90
7738;DHT22;29398;45.328;5.558;2022-12-16T07:00:24;4.20;99.90
7738;DHT22;29398;45.328;5.558;2022-12-16T07:01:43;4.10;99.90
7738;DHT22;29398;45.328;5.558;2022-12-16T07:03:03;4.20;99.90
7738;DHT22;29398;45.328;5.558;2022-12-16T07:04:22;4.20;99.90
7738;DHT22;29398;45.328;5.558;2022-12-16T07:05:42;4.20;99.90
7738;DHT22;29398;45.328;5.558;2022-12-16T07:07:01;4.20;99.90
7738;DHT22;29398;45.328;5.558;2022-12-16T07:08:20;4.10;99.90
7738;DHT22;29398;45.328;5.558;2022-12-16T07:09:40;4.10;99.90
7738;DHT22;29398;45.328;5.558;2022-12-16T07:10:59;4.10;99.90
7738;DHT22;29398;45.328;5.558;2022-12-16T07:12:18;4.10;99.90
7738;DHT22;29398;45.328;5.558;2022-12-16T07:13:37;4.50;99.90
7738;DHT22;29398;45.328;5.558;2022-12-16T07:14:58;4.10;99.90
7738;DHT22;29398;45.328;5.558;2022-12-16T07:16:18;4.10;99.90
7738;DHT22;29398;45.328;5.558;2022-12-16T07:17:38;4.10;99.90
7738;DHT22;29398;45.328;5.558;2022-12-16T07:18:58;4.20;99.90
7738;DHT22;29398;45.328;5.558;2022-12-16T07:20:17;4.20;99.90
7738;DHT22;29398;45.328;5.558;2022-12-16T07:21:39;4.10;99.90
7738;DHT22;29398;45.328;5.558;2022-12-16T07:22:59;4.20;99.90
7738;DHT22;29398;45.328;5.558;2022-12-16T07:24:18;4.10;99.90
7738;DHT22;29398;45.328;5.558;2022-12-16T07:25:43;4.10;99.90
7738;DHT22;29398;45.328;5.558;2022-12-16T07:27:03;4.10;99.90
7738;DHT22;29398;45.328;5.558;2022-12-16T07:28:22;4.10;99.90
7738;DHT22;29398;45.328;5.558;2022-12-16T07:29:42;4.10;99.90
7738;DHT22;29398;45.328;5.558;2022-12-16T07:31:02;4.10;99.90
7738;DHT22;29398;45.328;5.558;2022-12-16T07:32:22;4.10;99.90
7738;DHT22;29398;45.328;5.558;2022-12-16T07:33:42;4.10;99.90
7738;DHT22;29398;45.328;5.558;2022-12-16T07:35:02;4.10;99.90
7738;DHT22;29398;45.328;5.558;2022-12-16T07:36:30;4.10;99.90
7738;DHT22;29398;45.328;5.558;2022-12-16T07:37:49;4.10;99.90
7738;DHT22;29398;45.328;5.558;2022-12-16T07:39:08;4.10;99.90
7738;DHT22;29398;45.328;5.558;2022-12-16T07:40:30;4.10;99.90
7738;DHT22;29398;45.328;5.558;2022-12-16T07:41:49;4.10;99.90
7738;DHT22;29398;45.328;5.558;2022-12-16T07:43:09;4.10;99.90
7738;DHT22;29398;45.328;5.558;2022-12-16T07:44:28;4.10;99.90
7738;DHT22;29398;45.328;5.558;2022-12-16T07:45:48;4.10;99.90
7738;DHT22;29398;45.328;5.558;2022-12-16T07:47:08;4.10;99.90
7738;DHT22;29398;45.328;5.558;2022-12-16T07:48:28;4.20;99.90